TimeEET,TemperatureF,Dew PointF,Humidity,Sea Level PressureIn,VisibilityMPH,Wind Direction,Wind SpeedMPH,Gust SpeedMPH,PrecipitationIn,Events,Conditions,WindDirDegrees,DateUTC
12:20 AM,21.2,17.6,86,30.18,6.2,Variable,3.5,-,N/A,,Scattered Clouds,0,2012-11-29 22:20:00
12:50 AM,21.2,17.6,86,30.18,6.2,South,4.6,-,N/A,,Scattered Clouds,170,2012-11-29 22:50:00
1:20 AM,19.4,15.8,86,30.18,6.2,WSW,3.5,-,N/A,,Scattered Clouds,240,2012-11-29 23:20:00
1:50 AM,17.6,15.8,93,30.18,6.2,West,4.6,-,N/A,,Scattered Clouds,280,2012-11-29 23:50:00
2:00 AM,18,16,88,,12,West,4.6,,,,Partly Cloudy,280,2012-11-30 00:00:00
2:20 AM,17.6,15.8,93,30.18,6.2,Variable,1.2,-,N/A,,Scattered Clouds,0,2012-11-30 00:20:00
2:50 AM,19.4,17.6,93,30.18,6.2,SSE,3.5,-,N/A,,Scattered Clouds,160,2012-11-30 00:50:00
3:20 AM,17.6,15.8,93,30.18,6.2,Calm,Calm,-,N/A,,Scattered Clouds,0,2012-11-30 01:20:00
3:50 AM,15.8,14.0,93,30.18,6.2,SE,3.5,-,N/A,,Scattered Clouds,130,2012-11-30 01:50:00
4:20 AM,15.8,14.0,93,30.18,6.2,Variable,2.3,-,N/A,,Scattered Clouds,0,2012-11-30 02:20:00
4:50 AM,15.8,14.0,93,30.18,6.2,Variable,2.3,-,N/A,,Scattered Clouds,0,2012-11-30 02:50:00
5:20 AM,15.8,14.0,93,30.21,6.2,Variable,1.2,-,N/A,,Scattered Clouds,0,2012-11-30 03:20:00
5:50 AM,17.6,15.8,93,30.21,6.2,ENE,3.5,-,N/A,,Scattered Clouds,60,2012-11-30 03:50:00
6:20 AM,17.6,17.6,100,30.21,6.2,Variable,2.3,-,N/A,,Scattered Clouds,0,2012-11-30 04:20:00
6:50 AM,19.4,19.4,100,30.21,3.7,Variable,2.3,-,N/A,,Scattered Clouds,0,2012-11-30 04:50:00
7:20 AM,21.2,19.4,93,30.24,4.3,Variable,1.2,-,N/A,,Scattered Clouds,0,2012-11-30 05:20:00
7:50 AM,21.2,19.4,93,30.24,4.3,Variable,2.3,-,N/A,,Scattered Clouds,0,2012-11-30 05:50:00
8:00 AM,21,20,96,,4,West,2.3,,,,Mist,280,2012-11-30 06:00:00
8:20 AM,24.8,23.0,93,30.24,4.3,WSW,4.6,-,N/A,,Mostly Cloudy,250,2012-11-30 06:20:00
8:50 AM,28.4,23.0,80,30.24,4.3,WSW,3.5,-,N/A,,Mostly Cloudy,240,2012-11-30 06:50:00
9:20 AM,32.0,24.8,75,30.24,6.2,WSW,4.6,-,N/A,,Mostly Cloudy,250,2012-11-30 07:20:00
9:50 AM,35.6,21.2,56,30.24,6.2,West,3.5,-,N/A,,Mostly Cloudy,270,2012-11-30 07:50:00
10:20 AM,37.4,19.4,48,30.24,6.2,Variable,2.3,-,N/A,,Mostly Cloudy,0,2012-11-30 08:20:00
10:50 AM,39.2,21.2,49,30.24,6.2,Variable,2.3,-,N/A,,Mostly Cloudy,0,2012-11-30 08:50:00
11:20 AM,42.8,21.2,42,30.21,6.2,Variable,2.3,-,N/A,,Mostly Cloudy,0,2012-11-30 09:20:00
11:50 AM,44.6,21.2,39,30.21,6.2,Variable,1.2,-,N/A,,Scattered Clouds,0,2012-11-30 09:50:00
12:20 PM,46.4,19.4,34,30.21,6.2,Variable,4.6,-,N/A,,Scattered Clouds,0,2012-11-30 10:20:00
12:50 PM,48.2,15.8,27,30.21,6.2,West,5.8,-,N/A,,Scattered Clouds,280,2012-11-30 10:50:00
1:20 PM,46.4,14.0,27,30.21,6.2,West,5.8,-,N/A,,Scattered Clouds,280,2012-11-30 11:20:00
1:50 PM,48.2,14.0,25,30.21,6.2,West,8.1,-,N/A,,Scattered Clouds,260,2012-11-30 11:50:00
2:00 PM,48,12,12,,12,West,8.1,,,,Partly Cloudy,260,2012-11-30 12:00:00
2:20 PM,48.2,14.0,25,30.21,6.2,West,6.9,-,N/A,,Scattered Clouds,270,2012-11-30 12:20:00
2:50 PM,46.4,14.0,27,30.21,6.2,West,6.9,-,N/A,,Partly Cloudy,260,2012-11-30 12:50:00
3:20 PM,44.6,15.8,31,30.21,6.2,WSW,6.9,-,N/A,,Partly Cloudy,250,2012-11-30 13:20:00
3:50 PM,41.0,15.8,36,30.21,-9999.0,WSW,5.8,-,N/A,,Clear,240,2012-11-30 13:50:00
4:20 PM,39.2,15.8,39,30.21,-9999.0,SW,5.8,-,N/A,,Clear,220,2012-11-30 14:20:00
4:50 PM,35.6,15.8,44,30.24,-9999.0,South,4.6,-,N/A,,Clear,190,2012-11-30 14:50:00
5:20 PM,30.2,19.4,64,30.24,-9999.0,NW,5.8,-,N/A,,Clear,320,2012-11-30 15:20:00
5:50 PM,30.2,17.6,60,30.24,-9999.0,West,3.5,-,N/A,,Clear,260,2012-11-30 15:50:00
6:20 PM,26.6,17.6,69,30.27,-9999.0,Variable,2.3,-,N/A,,Clear,0,2012-11-30 16:20:00
6:50 PM,23.0,17.6,80,30.27,-9999.0,South,2.3,-,N/A,,Clear,180,2012-11-30 16:50:00
7:20 PM,24.8,15.8,69,30.27,-9999.0,Variable,2.3,-,N/A,,Clear,0,2012-11-30 17:20:00
7:50 PM,23.0,15.8,74,30.27,-9999.0,Variable,1.2,-,N/A,,Clear,0,2012-11-30 17:50:00
8:00 PM,24,17,64,,12,NNW,1.2,,,,,330,2012-11-30 18:00:00
8:20 PM,24.8,15.8,69,30.27,-9999.0,WSW,3.5,-,N/A,,Clear,240,2012-11-30 18:20:00
8:50 PM,23.0,17.6,80,30.27,-9999.0,SSW,4.6,-,N/A,,Clear,210,2012-11-30 18:50:00
9:20 PM,24.8,15.8,69,30.27,-9999.0,SW,5.8,-,N/A,,Clear,220,2012-11-30 19:20:00
9:50 PM,21.2,15.8,80,30.30,-9999.0,WSW,3.5,-,N/A,,Clear,240,2012-11-30 19:50:00
10:20 PM,19.4,15.8,86,30.30,-9999.0,Variable,2.3,-,N/A,,Clear,0,2012-11-30 20:20:00
10:50 PM,19.4,15.8,86,30.30,-9999.0,Variable,2.3,-,N/A,,Clear,0,2012-11-30 20:50:00
11:20 PM,21.2,15.8,80,30.30,-9999.0,ENE,2.3,-,N/A,,Clear,70,2012-11-30 21:20:00
11:50 PM,19.4,15.8,86,30.30,-9999.0,Variable,1.2,-,N/A,,Clear,0,2012-11-30 21:50:00